Latest Weather Observations for Edenhope

IDV60801

Issued at 8:31 pm EST Monday 2 May 2016 (issued every 30 minutes, with the page automatically refreshed every 10 minutes)

About weather observations | Map of weather stations | Latest weather observations for VIC | Other Formats
Station Details ID: 079099 Name: EDENHOPE AIRPORT Lat: -37.02 Lon: 141.27 Height: 155.0 m
Data from the previous 72 hours. | See also: Recent months at Edenhope
Date/Time
EST
Temp
°C
App
Temp
°C
Dew
Point
Rel
Hum
%
Delta-T
°C
Wind Press
QNH
hPa
Press
MSL
hPa
Rain
since 9 am
mm
Dir
 
Spd
km/h
Gust
km/h
Spd
kts
Gust
kts
02/08:30pm 15.4 11.4 10.4 72 2.7 NNW 22 32 12 17 - - 0.0
02/08:00pm 15.1 10.6 10.1 72 2.6 NNW 24 39 13 21 - - 0.0
02/07:30pm 15.4 11.3 10.0 70 2.8 NW 22 33 12 18 - - 0.0
02/07:00pm 15.3 11.7 10.5 73 2.5 NW 20 30 11 16 - - 0.0
02/06:30pm 15.8 11.3 9.9 68 3.1 NW 24 37 13 20 - - 0.0
02/06:00pm 16.0 11.5 9.9 67 3.2 NNW 24 35 13 19 - - 0.0
02/05:30pm 16.4 12.0 9.1 62 3.8 NW 22 35 12 19 - - 0.0
02/05:00pm 16.9 12.0 8.3 57 4.4 NW 24 37 13 20 - - 0.0
02/04:30pm 17.3 10.8 8.2 55 4.7 NW 32 46 17 25 - - 0.0
02/04:00pm 17.4 12.5 8.5 56 4.6 NW 24 41 13 22 - - 0.0
02/03:30pm 17.6 12.4 9.0 57 4.5 NNW 26 41 14 22 - - 0.0
02/03:00pm 16.9 11.7 8.8 59 4.2 NW 26 43 14 23 - - 0.0
02/02:30pm 16.9 10.6 9.1 60 4.1 NW 32 48 17 26 - - 0.0
02/02:25pm 17.0 11.1 9.2 60 4.1 NW 30 48 16 26 - - 0.0
02/02:00pm 16.3 10.3 8.5 60 4.0 NW 30 46 16 25 - - 0.0
02/01:31pm 16.5 10.4 8.2 58 4.2 NW 30 48 16 26 - - 0.0
02/01:30pm 16.5 10.5 8.5 59 4.1 NW 30 44 16 24 - - 0.0
02/01:03pm 16.5 10.6 7.7 56 4.5 NW 28 48 15 26 - - 0.0
02/01:00pm 17.1 11.1 8.5 57 4.4 NW 30 48 16 26 - - 0.0
02/12:36pm 16.5 10.8 8.2 58 4.2 NW 28 46 15 25 - - 0.0
02/12:30pm 16.2 10.6 8.7 61 3.9 NW 28 41 15 22 - - 0.0
02/12:15pm 16.5 10.4 8.2 58 4.2 NW 30 52 16 28 - - 0.0
02/12:00pm 16.1 10.8 8.3 60 4.0 NW 26 37 14 20 - - 0.0
02/11:30am 15.9 10.2 8.4 61 3.8 NW 28 41 15 22 - - 0.0
02/11:18am 15.3 9.5 7.8 61 3.8 NW 28 46 15 25 - - 0.0
02/11:00am 15.0 9.6 7.8 62 3.6 NNW 26 37 14 20 - - 0.0
02/10:30am 14.2 9.2 7.9 66 3.2 NNW 24 33 13 18 - - 0.0
02/10:00am 13.7 8.6 7.7 67 3.0 NNW 24 37 13 20 - - 0.0
02/09:30am 12.3 7.9 7.2 71 2.5 NNW 20 30 11 16 - - 0.0
02/09:00am 11.5 7.1 6.6 72 2.3 NNW 19 28 10 15 - - 0.6
02/08:30am 10.7 6.3 6.6 76 1.9 NNW 19 26 10 14 - - 0.6
02/08:00am 9.7 5.6 6.1 78 1.7 NNW 17 26 9 14 - - 0.6
02/07:30am 9.2 5.0 5.8 79 1.6 N 17 22 9 12 - - 0.6
02/07:00am 9.1 5.7 5.8 80 1.5 N 13 17 7 9 - - 0.6
02/06:30am 9.2 5.4 5.8 79 1.6 NNW 15 20 8 11 - - 0.6
02/06:00am 9.5 6.2 6.2 80 1.5 N 13 20 7 11 - - 0.6
02/05:30am 9.0 5.6 6.1 82 1.3 NNW 13 17 7 9 - - 0.6
02/05:00am 9.4 6.1 6.3 81 1.4 NNW 13 19 7 10 - - 0.6
02/04:30am 9.9 6.2 6.4 79 1.6 NNW 15 20 8 11 - - 0.6
02/04:00am 9.6 6.7 6.7 82 1.4 N 11 15 6 8 - - 0.6
02/03:30am 9.4 6.9 6.5 82 1.4 NNW 9 13 5 7 - - 0.6
02/03:00am 9.6 6.1 5.6 76 1.8 NNW 13 22 7 12 - - 0.6
02/02:30am 9.3 6.5 5.3 76 1.8 NW 9 13 5 7 - - 0.6
02/02:00am 9.4 6.6 5.2 75 1.9 NNW 9 13 5 7 - - 0.6
02/01:30am 8.8 5.7 5.4 79 1.5 N 11 15 6 8 - - 0.6
02/01:00am 8.8 5.7 5.5 80 1.5 N 11 13 6 7 - - 0.6
02/12:30am 8.5 5.8 5.8 83 1.2 N 9 11 5 6 - - 0.6
02/12:00am 9.5 7.3 6.0 79 1.6 N 7 9 4 5 - - 0.6
 
Date/Time
EST
Temp
°C
App
Temp
°C
Dew
Point
Rel
Hum
%
Delta-T
°C
Wind Press
QNH
hPa
Press
MSL
hPa
Rain
since 9 am
mm
Dir
 
Spd
km/h
Gust
km/h
Spd
kts
Gust
kts
01/11:30pm 9.2 6.6 6.1 81 1.4 N 9 13 5 7 - - 0.6
01/11:00pm 8.9 6.3 6.2 83 1.3 N 9 13 5 7 - - 0.6
01/10:30pm 7.8 5.6 5.3 84 1.1 N 6 7 3 4 - - 0.6
01/10:00pm 7.4 5.0 4.5 82 1.3 N 6 7 3 4 - - 0.6
01/09:30pm 8.6 6.4 5.4 80 1.5 N 6 6 3 3 - - 0.6
01/09:00pm 8.8 7.0 5.5 80 1.5 N 4 6 2 3 - - 0.6
01/08:30pm 9.4 7.6 5.4 76 1.8 NNW 4 6 2 3 - - 0.6
01/08:00pm 9.6 7.7 4.8 72 2.2 WNW 4 6 2 3 - - 0.6
01/07:30pm 10.5 8.3 5.1 69 2.5 WNW 6 9 3 5 - - 0.6
01/07:00pm 10.5 7.7 5.1 69 2.5 W 9 9 5 5 - - 0.6
01/06:30pm 11.2 8.6 4.4 63 3.1 WNW 7 9 4 5 - - 0.6
01/06:00pm 12.0 9.0 4.2 59 3.5 W 9 13 5 7 - - 0.6
01/05:30pm 12.9 9.3 4.8 58 3.8 WSW 13 20 7 11 - - 0.6
01/05:00pm 13.6 9.9 6.5 62 3.4 W 15 20 8 11 - - 0.6
01/04:30pm 13.5 9.0 6.1 61 3.5 W 19 30 10 16 - - 0.6
01/04:00pm 13.0 7.2 6.4 64 3.2 WSW 26 37 14 20 - - 0.6
01/03:30pm 14.5 9.3 5.3 54 4.4 WSW 22 35 12 19 - - 0.6
01/03:00pm 15.3 9.1 4.4 48 5.1 WSW 26 37 14 20 - - 0.6
01/02:30pm 15.0 10.0 6.3 56 4.2 WSW 22 32 12 17 - - 0.6
01/02:00pm 14.4 8.5 6.0 57 4.0 WSW 26 37 14 20 - - 0.6
01/01:30pm 14.1 8.6 6.0 58 3.9 WSW 24 39 13 21 - - 0.6
01/01:00pm 13.5 8.5 6.4 62 3.4 WSW 22 37 12 20 - - 0.6
01/12:30pm 12.3 7.7 6.6 68 2.7 W 20 30 11 16 - - 0.6
01/12:00pm 12.7 7.7 8.2 74 2.2 WSW 24 35 13 19 - - 0.6
01/11:30am 13.0 8.9 8.7 75 2.2 W 20 37 11 20 - - 0.6
01/11:00am 12.0 8.1 8.8 81 1.6 W 19 30 10 16 - - 0.6
01/10:30am 10.8 6.2 8.0 83 1.4 W 22 32 12 17 - - 0.6
01/10:00am 10.5 5.2 8.4 87 1.0 W 26 35 14 19 - - 0.4
01/09:30am 10.3 5.3 8.2 87 1.0 W 24 32 13 17 - - 0.4
01/09:00am 10.5 7.3 8.4 87 1.0 WNW 15 24 8 13 - - 4.2
01/08:30am 9.7 6.3 7.8 88 0.9 W 15 22 8 12 - - 4.2
01/08:00am 9.6 5.0 8.0 90 0.8 W 22 33 12 18 - - 4.2
01/07:30am 9.8 4.4 8.2 90 0.8 W 26 43 14 23 - - 3.8
01/07:00am 10.0 5.8 8.1 88 0.9 WNW 20 30 11 16 - - 3.8
01/06:30am 10.2 4.5 8.3 88 0.9 W 28 43 15 23 - - 3.8
01/06:00am 10.5 6.8 9.3 92 0.6 WNW 19 32 10 17 - - 3.8
01/05:30am 10.8 7.3 8.7 87 1.0 WNW 17 24 9 13 - - 3.0
01/05:00am 10.6 6.8 8.9 89 0.8 WNW 19 28 10 15 - - 3.0
01/04:30am 11.1 4.7 9.2 88 1.0 W 33 48 18 26 - - 2.4
01/04:19am 11.8 6.6 10.2 90 0.8 WNW 28 46 15 25 - - 2.0
01/04:00am 12.5 7.5 9.7 83 1.4 WNW 26 39 14 21 - - 1.8
01/03:30am 12.0 8.2 9.9 87 1.1 WNW 20 28 11 15 - - 1.8
01/03:00am 12.5 8.6 9.3 81 1.6 WNW 20 32 11 17 - - 1.8
01/02:30am 12.8 9.0 9.1 78 1.9 WNW 19 30 10 16 - - 1.8
01/02:00am 13.4 8.2 8.7 73 2.4 WNW 26 41 14 22 - - 1.8
01/01:30am 14.4 8.6 9.6 73 2.5 WNW 30 54 16 29 - - 1.8
01/01:10am 15.7 10.6 10.7 72 2.7 WNW 28 50 15 27 - - 1.8
01/01:00am 15.8 10.7 10.6 71 2.8 NW 28 43 15 23 - - 1.8
01/12:30am 15.7 10.1 10.0 69 3.0 NW 30 44 16 24 - - 1.4
01/12:00am 16.0 11.6 10.3 69 3.0 NW 24 33 13 18 - - 1.4
 
Date/Time
EST
Temp
°C
App
Temp
°C
Dew
Point
Rel
Hum
%
Delta-T
°C
Wind Press
QNH
hPa
Press
MSL
hPa
Rain
since 9 am
mm
Dir
 
Spd
km/h
Gust
km/h
Spd
kts
Gust
kts
30/11:43pm 16.6 11.6 10.9 69 3.1 NW 28 52 15 28 - - 1.4
30/11:30pm 16.1 13.1 11.9 76 2.3 NNW 19 26 10 14 - - 1.2
30/11:00pm 15.8 13.7 12.4 80 1.9 N 15 20 8 11 - - 1.2
30/10:30pm 17.2 12.3 11.2 68 3.3 WNW 28 50 15 27 - - 0.4
30/10:22pm 18.2 15.7 11.0 63 3.9 N 15 50 8 27 - - 0.0
30/10:00pm 18.5 16.5 10.3 59 4.4 NNE 11 17 6 9 - - 0.0
30/09:30pm 17.3 15.7 10.2 63 3.8 NNW 9 13 5 7 - - 0.0
30/09:00pm 18.4 16.4 10.0 58 4.5 N 11 19 6 10 - - 0.0
30/08:30pm 19.2 16.7 9.7 54 5.1 NNE 13 19 7 10 - - 0.0
30/08:00pm 19.6 17.0 9.5 52 5.4 NNE 13 17 7 9 - - 0.0
30/07:30pm 19.5 17.3 9.4 52 5.4 N 11 15 6 8 - - 0.0
30/07:00pm 20.0 17.3 9.0 49 5.8 N 13 17 7 9 - - 0.0
30/06:30pm 20.5 18.1 8.8 47 6.2 N 11 17 6 9 - - 0.0
30/06:00pm 21.2 18.5 8.8 45 6.6 N 13 19 7 10 - - 0.0
30/05:30pm 21.7 18.2 8.9 44 6.8 N 17 24 9 13 - - 0.0
30/05:00pm 22.1 18.2 8.6 42 7.2 NNW 19 28 10 15 - - 0.0
30/04:30pm 22.6 18.5 8.0 39 7.7 NNW 19 28 10 15 - - 0.0
30/04:00pm 22.9 17.4 7.4 37 8.1 NNW 26 35 14 19 - - 0.0
30/03:30pm 23.1 18.2 8.4 39 7.9 NNW 24 37 13 20 - - 0.0
30/03:00pm 23.0 18.4 8.3 39 7.8 NNW 22 32 12 17 - - 0.0
30/02:30pm 22.7 18.3 9.1 42 7.3 NW 22 30 12 16 - - 0.0
30/02:00pm 22.5 18.8 9.6 44 7.0 NW 19 26 10 14 - - 0.0
30/01:30pm 21.8 17.0 9.0 44 6.9 NW 24 35 13 19 - - 0.0
30/01:00pm 21.6 16.8 8.8 44 6.8 NW 24 35 13 19 - - 0.0
30/12:30pm 21.5 17.1 9.1 45 6.6 NW 22 32 12 17 - - 0.0
30/12:00pm 21.0 16.6 8.9 46 6.4 NNW 22 33 12 18 - - 0.0
30/11:30am 20.6 15.9 9.2 48 6.1 NW 24 33 13 18 - - 0.0
30/11:00am 19.8 15.3 10.0 53 5.3 NNW 24 39 13 21 - - 0.0
30/10:30am 19.1 15.0 10.1 56 4.8 NNW 22 32 12 17 - - 0.0
30/10:00am 18.4 15.4 10.8 61 4.1 NW 17 30 9 16 - - 0.0
30/09:30am 17.6 15.3 11.9 69 3.2 NW 15 22 8 12 - - 0.0
30/09:00am 16.1 14.1 12.8 81 1.8 NNW 15 24 8 13 - - 8.0
30/08:30am 14.7 13.5 14.1 96 0.3 N 13 20 7 11 - - 8.0
30/08:00am 13.8 13.2 13.5 98 0.2 N 9 11 5 6 - - 8.0
30/07:30am 13.6 12.6 13.3 98 0.2 N 11 15 6 8 - - 8.0
30/07:00am 13.5 12.4 13.2 98 0.2 N 11 15 6 8 - - 8.0
30/06:30am 13.7 12.6 13.2 97 0.3 N 11 13 6 7 - - 8.0
30/06:00am 14.4 13.6 13.9 97 0.3 N 11 15 6 8 - - 8.0
30/05:30am 14.4 13.9 13.9 97 0.3 N 9 13 5 7 - - 8.0
30/05:00am 14.4 13.9 13.8 96 0.3 NNW 9 13 5 7 - - 8.0
30/04:30am 14.8 14.1 14.2 96 0.3 N 11 13 6 7 - - 8.0
30/04:00am 14.9 14.2 14.4 97 0.3 N 11 17 6 9 - - 8.0
30/03:30am 14.9 14.2 14.3 96 0.3 N 11 17 6 9 - - 8.0
30/03:00am 14.9 14.2 14.3 96 0.3 N 11 15 6 8 - - 8.0
30/02:30am 14.7 13.9 14.1 96 0.3 N 11 15 6 8 - - 8.0
30/02:00am 14.6 13.3 13.8 95 0.5 N 13 17 7 9 - - 8.0
30/01:30am 14.6 13.3 13.8 95 0.5 N 13 17 7 9 - - 8.0
30/01:00am 14.5 13.1 13.5 94 0.6 N 13 17 7 9 - - 8.0
30/12:30am 14.2 13.1 13.2 94 0.6 N 11 15 6 8 - - 7.8
30/12:00am 14.3 13.6 13.2 93 0.6 N 9 13 5 7 - - 7.8
 
Date/Time
EST
Temp
°C
App
Temp
°C
Dew
Point
Rel
Hum
%
Delta-T
°C
Wind Press
QNH
hPa
Press
MSL
hPa
Rain
since 9 am
mm
Dir
 
Spd
km/h
Gust
km/h
Spd
kts
Gust
kts
29/11:30pm 14.0 13.6 12.9 93 0.6 N 7 11 4 6 - - 7.8
29/11:00pm 14.0 13.8 13.1 94 0.5 NNE 6 9 3 5 - - 7.8
29/10:30pm 14.5 14.5 13.7 95 0.5 NNE 6 7 3 4 - - 7.8
29/10:00pm 14.5 14.5 13.7 95 0.5 N 6 6 3 3 - - 7.8
29/09:30pm 15.1 15.3 14.3 95 0.5 NNE 6 7 3 4 - - 7.8
29/09:00pm 14.7 14.9 14.1 96 0.3 NNE 6 11 3 6 - - 7.8

Other Formats:

Comma delimited format used in spreadsheet applications
http://www.bom.gov.au/fwo/IDV60801/IDV60801.95832.axf

JavaScript Object Notation format (JSON) in row-major order
http://www.bom.gov.au/fwo/IDV60801/IDV60801.95832.json